Wise, VA

1:56 AM EST on February 27, 2017 (GMT -0500)
Lonesome Pine

Weather History for KLNP - January, 2015

Change the Weather History Date:

Thursday, January 29, 2015

  Actual Average Record
Temperature  
Mean Temperature 39 °F -  
Max Temperature 46 °F 40 °F 64 °F (2013)
Min Temperature 32 °F 24 °F -2 °F (2014)
Degree Days  
Heating Degree Days 26    
Moisture  
Dew Point 24 °F    
Average Humidity 57    
Maximum Humidity 100    
Minimum Humidity 33    
Precipitation  
Precipitation 0.08 in - - ()
Sea Level Pressure  
Sea Level Pressure 30.06 in    
Wind  
Wind Speed 10 mph (SW)    
Max Wind Speed 24 mph    
Max Gust Speed 37 mph    
Visibility 9 miles    
Events Rain    
Averages and records for this station are not official NWS values.
T = Trace of Precipitation, MM = Missing Value Source: NWS Daily Summary

Daily Weather History Graph

Daily Weather History Graph

Search for Another Location

Airport or City:

Trip Planner

Search our weather history database for the weather conditions in past years. The results will help you decide how hot, cold, wet, or windy it might be!

Date:

Astronomy

Jan. 29, 2015 Rise Set
Actual Time 7:35 AM EST 5:51 PM EST
Civil Twilight 7:07 AM EST 6:19 PM EST
Nautical Twilight 6:36 AM EST 6:50 PM EST
Astronomical Twilight 6:05 AM EST 7:21 PM EST
Moon 1:39 PM EST (1/29) 3:06 AM EST (1/29)
Length of Visible Light 11h 11m
Length of Day
10h 16m
Waxing Gibbous, 75% of the Moon is Illuminated
Jan 29
Waxing Gibbous
Feb 3
Full
Feb 11
Last Quarter
Feb 18
New
Feb 25
First Quarter

Hourly Weather History & Observations

Time (EST) Temp. Windchill Dew Point Humidity Pressure Visibility Wind Dir Wind Speed Gust Speed Precip Events Conditions
12:15 AM 32.0 °F 27.5 °F 14.0 °F 48% 30.18 in 10.0 mi SSE 4.6 mph - N/A   Clear
12:35 AM 32.0 °F 25.6 °F 12.2 °F 44% 30.17 in 10.0 mi SSE 6.9 mph - N/A   Clear
12:55 AM 33.8 °F 27.0 °F 10.4 °F 38% 30.16 in 10.0 mi SSE 8.1 mph - N/A   Clear
1:15 AM 35.6 °F 29.2 °F 8.6 °F 33% 30.16 in 10.0 mi SSE 8.1 mph - N/A   Clear
1:35 AM 33.8 °F 25.8 °F 10.4 °F 38% 30.15 in 10.0 mi SE 10.4 mph - N/A   Clear
1:55 AM 33.8 °F 27.0 °F 12.2 °F 41% 30.15 in 10.0 mi SSE 8.1 mph - N/A   Clear
2:15 AM 33.8 °F 27.7 °F 14.0 °F 44% 30.16 in 10.0 mi SW 6.9 mph - N/A   Clear
2:35 AM 32.0 °F 26.4 °F 12.2 °F 44% 30.16 in 10.0 mi SSW 5.8 mph - N/A   Clear
2:55 AM 33.8 °F 27.7 °F 12.2 °F 41% 30.16 in 10.0 mi South 6.9 mph - N/A   Clear
3:15 AM 32.0 °F 26.4 °F 14.0 °F 48% 30.16 in 10.0 mi SSW 5.8 mph - N/A   Clear
3:35 AM 32.0 °F 23.6 °F 15.8 °F 51% 30.14 in 10.0 mi SSW 10.4 mph - N/A   Clear
3:55 AM 32.0 °F 24.8 °F 14.0 °F 48% 30.14 in 10.0 mi SSW 8.1 mph - N/A   Clear
4:15 AM 33.8 °F 27.7 °F 12.2 °F 41% 30.14 in 10.0 mi SSW 6.9 mph - N/A   Clear
4:35 AM 35.6 °F 29.9 °F 14.0 °F 41% 30.13 in 10.0 mi SW 6.9 mph - N/A   Clear
4:55 AM 35.6 °F 29.2 °F 12.2 °F 38% 30.11 in 10.0 mi SSW 8.1 mph - N/A   Clear
5:15 AM 35.6 °F 27.5 °F 14.0 °F 41% 30.11 in 10.0 mi SW 11.5 mph - N/A   Clear
5:35 AM 35.6 °F 27.5 °F 14.0 °F 41% 30.11 in 10.0 mi SSW 11.5 mph - N/A   Clear
5:55 AM 37.4 °F 30.3 °F 14.0 °F 38% 30.11 in 10.0 mi SW 10.4 mph - N/A   Clear
6:15 AM 35.6 °F 31.7 °F 14.0 °F 41% 30.10 in 10.0 mi SSW 4.6 mph - N/A   Clear
6:30 AM 33.8 °F 27.7 °F 15.8 °F 48% 30.10 in 10.0 mi SSW 6.9 mph - N/A   Clear
6:55 AM 35.6 °F 28.6 °F 14.0 °F 41% 30.11 in 10.0 mi SSW 9.2 mph - N/A   Clear
7:15 AM 35.6 °F 27.1 °F 15.8 °F 44% 30.11 in 10.0 mi SW 12.7 mph 17.3 mph N/A   Clear
7:30 AM 37.4 °F 29.8 °F 14.0 °F 38% 30.11 in 10.0 mi SSW 11.5 mph - N/A   Clear
7:55 AM 35.6 °F 28.0 °F 15.8 °F 44% 30.11 in 10.0 mi SW 10.4 mph - N/A   Clear
8:15 AM 37.4 °F 30.3 °F 14.0 °F 38% 30.11 in 10.0 mi SSW 10.4 mph - N/A   Clear
8:35 AM 39.2 °F 31.6 °F 14.0 °F 36% 30.09 in 10.0 mi South 12.7 mph 16.1 mph N/A   Clear
8:55 AM 41.0 °F 35.2 °F 14.0 °F 33% 30.09 in 10.0 mi SSW 9.2 mph - N/A   Clear
9:15 AM 39.2 °F 33.0 °F 14.0 °F 36% 30.09 in 10.0 mi SW 9.2 mph - N/A   Clear
9:35 AM 37.4 °F 30.3 °F 17.6 °F 45% 30.10 in 10.0 mi SW 10.4 mph - N/A   Clear
9:55 AM 39.2 °F 34.2 °F 17.6 °F 42% 30.09 in 10.0 mi WSW 6.9 mph - N/A   Clear
10:15 AM 39.2 °F 33.6 °F 17.6 °F 42% 30.09 in 10.0 mi SW 8.1 mph - N/A   Scattered Clouds
10:35 AM 41.0 °F 34.7 °F 17.6 °F 39% 30.07 in 10.0 mi South 10.4 mph 19.6 mph N/A   Mostly Cloudy
10:55 AM 39.2 °F 30.5 °F 23.0 °F 52% 30.08 in 10.0 mi SSW 16.1 mph 27.6 mph N/A Rain Rain
11:15 AM 37.4 °F 27.8 °F 26.6 °F 65% 30.09 in 10.0 mi SSW 17.3 mph 21.9 mph 0.01 in Rain Light Rain
11:35 AM 35.6 °F 26.6 °F 30.2 °F 81% 30.05 in 3.0 mi SSW 13.8 mph 24.2 mph 0.04 in Rain Light Rain
11:55 AM 37.4 °F 29.3 °F 32.0 °F 81% 30.04 in 10.0 mi SW 12.7 mph 19.6 mph 0.04 in   Mostly Cloudy
12:15 PM 41.0 °F 32.8 °F 32.0 °F 70% 30.01 in 10.0 mi SSW 16.1 mph 26.5 mph N/A   Mostly Cloudy
12:35 PM 42.8 °F 35.8 °F 32.0 °F 66% 30.00 in 10.0 mi SW 13.8 mph 24.2 mph N/A   Scattered Clouds
12:55 PM 44.6 °F 37.4 °F 30.2 °F 57% 30.00 in 10.0 mi WSW 16.1 mph 23.0 mph N/A   Clear
1:15 PM 42.8 °F 35.4 °F 30.2 °F 61% 29.98 in 10.0 mi SW 15.0 mph 23.0 mph N/A   Scattered Clouds
1:35 PM 44.6 °F 37.8 °F 28.4 °F 53% 29.97 in 10.0 mi SW 15.0 mph 25.3 mph N/A   Clear
1:55 PM 44.6 °F 36.1 °F 28.4 °F 53% 29.96 in 10.0 mi SW 21.9 mph 28.8 mph N/A   Clear
2:15 PM 44.6 °F 36.1 °F 28.4 °F 53% 29.95 in 10.0 mi SW 21.9 mph 33.4 mph N/A   Clear
2:35 PM 44.6 °F 36.1 °F 28.4 °F 53% 29.95 in 10.0 mi SW 21.9 mph 36.8 mph N/A   Clear
2:55 PM 46.4 °F 38.1 °F 28.4 °F 50% 29.94 in 10.0 mi SW 24.2 mph 35.7 mph N/A   Clear
3:15 PM 44.6 °F 36.1 °F 30.2 °F 57% 29.94 in 10.0 mi SW 21.9 mph 32.2 mph N/A   Clear
3:35 PM 44.6 °F 36.9 °F 30.2 °F 57% 29.95 in 10.0 mi SW 18.4 mph 28.8 mph N/A   Clear
3:55 PM 46.4 °F 39.8 °F 30.2 °F 53% 29.95 in 10.0 mi SW 16.1 mph 25.3 mph N/A   Clear
4:15 PM 44.6 °F 37.2 °F 30.2 °F 57% 29.96 in 10.0 mi WSW 17.3 mph 23.0 mph N/A   Clear
4:35 PM 44.6 °F 37.8 °F 30.2 °F 57% 29.96 in 10.0 mi SW 15.0 mph - N/A   Clear
4:55 PM 44.6 °F 39.2 °F 32.0 °F 61% 29.97 in 10.0 mi WSW 10.4 mph - N/A   Clear
5:15 PM 44.6 °F 37.8 °F 32.0 °F 61% 29.97 in 10.0 mi SW 15.0 mph - N/A   Mostly Cloudy
5:35 PM 44.6 °F 38.8 °F 32.0 °F 61% 29.98 in 10.0 mi SSW 11.5 mph 20.7 mph N/A   Overcast
5:55 PM 44.6 °F 39.2 °F 32.0 °F 61% 29.98 in 10.0 mi SW 10.4 mph - N/A   Overcast
6:15 PM 44.6 °F 39.2 °F 32.0 °F 61% 29.98 in 10.0 mi SW 10.4 mph - N/A   Overcast
6:35 PM 44.6 °F 39.2 °F 32.0 °F 61% 29.98 in 10.0 mi SW 10.4 mph - N/A   Overcast
6:50 PM 44.6 °F 37.2 °F 32.0 °F 61% 29.99 in 10.0 mi SW 17.3 mph - N/A   Overcast
7:15 PM 44.6 °F 39.7 °F 32.0 °F 61% 30.00 in 10.0 mi SW 9.2 mph 16.1 mph N/A   Overcast
7:35 PM 44.6 °F 38.4 °F 32.0 °F 61% 30.00 in 10.0 mi SW 12.7 mph 16.1 mph N/A   Overcast
7:55 PM 44.6 °F 38.1 °F 32.0 °F 61% 30.01 in 10.0 mi SW 13.8 mph 21.9 mph N/A   Overcast
8:15 PM 44.6 °F 37.4 °F 32.0 °F 61% 30.01 in 10.0 mi WSW 16.1 mph 20.7 mph N/A   Overcast
8:35 PM 44.6 °F 38.4 °F 32.0 °F 61% 30.01 in 10.0 mi WSW 12.7 mph 19.6 mph N/A   Overcast
8:55 PM 42.8 °F 36.6 °F 35.6 °F 76% 30.02 in 10.0 mi NW 11.5 mph 18.4 mph N/A   Overcast
9:15 PM 41.0 °F 33.9 °F 35.6 °F 81% 30.03 in 7.0 mi WNW 12.7 mph 19.6 mph N/A   Light Drizzle
9:35 PM 39.2 °F 31.6 °F 37.4 °F 93% 30.04 in 7.0 mi NW 12.7 mph 20.7 mph N/A Rain Light Rain
9:55 PM 37.4 °F 29.3 °F 37.4 °F 100% 30.05 in 4.0 mi WNW 12.7 mph 17.3 mph N/A Rain Rain
10:15 PM 35.6 °F 30.7 °F 35.6 °F 100% 30.05 in 3.0 mi NNW 5.8 mph - 0.01 in Rain Rain
10:35 PM 35.6 °F 31.7 °F 35.6 °F 100% 30.07 in 3.0 mi NNW 4.6 mph - 0.03 in Rain Rain
10:55 PM 33.8 °F 29.6 °F 33.8 °F 100% 30.07 in 5.0 mi NW 4.6 mph - 0.04 in Rain Light Rain
11:15 PM 33.8 °F 27.0 °F 33.8 °F 100% 30.07 in 5.0 mi WNW 8.1 mph - N/A Rain Light Rain
11:35 PM 33.8 °F 24.3 °F 33.8 °F 100% 30.08 in 4.0 mi West 13.8 mph - N/A   Overcast
11:55 PM 33.8 °F 24.3 °F 33.8 °F 100% 30.08 in 4.0 mi WNW 13.8 mph 20.7 mph N/A   Overcast